createdAt,value
2018-12-19T00:01:06.686Z,16.32
2018-12-19T00:03:34.759Z,14.33
2018-12-19T00:06:02.804Z,13.63
2018-12-19T00:08:30.801Z,18.27
2018-12-19T00:10:58.854Z,15.73
2018-12-19T00:13:26.974Z,19.82
2018-12-19T00:15:55.028Z,15.68
2018-12-19T00:18:23.134Z,16.47
2018-12-19T00:20:51.227Z,12.77
2018-12-19T00:23:19.278Z,16.33
2018-12-19T00:25:47.445Z,17.53
2018-12-19T00:28:15.567Z,12.77
2018-12-19T00:30:43.638Z,20.30
2018-12-19T00:33:11.690Z,21.17
2018-12-19T00:35:39.828Z,16.53
2018-12-19T00:38:07.894Z,16.12
2018-12-19T00:40:36.098Z,14.23
2018-12-19T00:43:04.215Z,14.77
2018-12-19T00:45:32.322Z,18.37
2018-12-19T00:48:00.364Z,14.00
2018-12-19T00:50:28.400Z,13.90
2018-12-19T00:52:56.642Z,16.80
2018-12-19T00:55:24.702Z,16.03
2018-12-19T00:57:52.754Z,17.10
2018-12-19T01:00:20.783Z,16.65
2018-12-19T01:02:48.810Z,16.37
2018-12-19T01:05:16.998Z,17.20
2018-12-19T01:07:51.686Z,21.70
2018-12-19T01:10:19.735Z,15.73
2018-12-19T01:12:47.810Z,13.60
2018-12-19T01:15:15.935Z,13.07
2018-12-19T01:17:43.994Z,15.95
2018-12-19T01:20:12.058Z,17.60
2018-12-19T01:22:40.329Z,19.27
2018-12-19T01:25:08.418Z,19.53
2018-12-19T01:27:36.491Z,17.50
2018-12-19T01:30:04.920Z,15.60
2018-12-19T01:32:33.786Z,20.10
2018-12-19T01:35:01.826Z,19.50
2018-12-19T01:37:29.931Z,18.17
2018-12-19T01:39:57.934Z,19.00
2018-12-19T01:42:26.679Z,15.03
2018-12-19T01:44:54.758Z,15.97
2018-12-19T01:47:22.791Z,18.90
2018-12-19T01:49:50.843Z,19.35
2018-12-19T01:52:18.940Z,17.20
2018-12-19T01:54:46.986Z,18.23
2018-12-19T01:57:15.074Z,17.02
2018-12-19T01:59:43.170Z,15.57
2018-12-19T02:02:11.318Z,22.50
2018-12-19T02:04:39.395Z,18.07
2018-12-19T02:07:07.376Z,19.35
2018-12-19T02:09:35.467Z,22.73
2018-12-19T02:12:03.547Z,18.17
2018-12-19T02:14:31.604Z,17.42
2018-12-19T02:16:59.659Z,17.37
2018-12-19T02:19:27.694Z,19.90
2018-12-19T02:21:55.826Z,23.30
2018-12-19T02:24:23.919Z,16.65
2018-12-19T02:26:52.062Z,19.10
2018-12-19T02:29:20.139Z,19.77
2018-12-19T02:31:48.284Z,22.42
2018-12-19T02:34:16.462Z,19.93
2018-12-19T02:36:44.561Z,19.60
2018-12-19T02:39:12.634Z,21.02
2018-12-19T02:41:40.665Z,17.20
2018-12-19T02:44:08.831Z,20.33
2018-12-19T02:46:36.923Z,22.00
2018-12-19T02:49:05.003Z,19.52
2018-12-19T02:51:33.157Z,19.60
2018-12-19T02:54:01.181Z,16.97
2018-12-19T02:56:29.395Z,18.93
2018-12-19T02:58:58.286Z,15.10
2018-12-19T03:01:26.461Z,19.65
2018-12-19T03:03:54.585Z,19.75
2018-12-19T03:06:22.698Z,18.00
2018-12-19T03:08:50.734Z,18.37
2018-12-19T03:11:18.910Z,18.67
2018-12-19T03:13:52.199Z,15.15
2018-12-19T03:16:20.596Z,18.37
2018-12-19T03:18:48.660Z,17.23
2018-12-19T03:21:16.982Z,17.00
2018-12-19T03:23:45.032Z,16.17
2018-12-19T03:26:13.208Z,14.87
2018-12-19T03:28:41.915Z,16.55
2018-12-19T03:31:10.143Z,17.45
2018-12-19T03:33:38.366Z,19.03
2018-12-19T03:36:06.408Z,17.75
2018-12-19T03:38:34.630Z,16.52
2018-12-19T03:41:02.684Z,17.57
2018-12-19T03:43:30.741Z,15.77
2018-12-19T03:45:58.795Z,15.70
2018-12-19T03:48:32.227Z,19.80
2018-12-19T03:51:00.286Z,14.53
2018-12-19T03:53:28.349Z,15.50
2018-12-19T03:55:56.450Z,17.47
2018-12-19T03:58:24.507Z,17.10
2018-12-19T04:00:52.576Z,18.63
2018-12-19T04:03:20.954Z,16.13
2018-12-19T04:05:49.101Z,19.63
2018-12-19T04:08:17.186Z,14.97
2018-12-19T04:10:45.214Z,15.80
2018-12-19T04:13:13.326Z,16.37
2018-12-19T04:15:41.417Z,13.90
2018-12-19T04:18:09.479Z,15.47
2018-12-19T04:20:37.514Z,15.37
2018-12-19T04:23:05.608Z,15.43
2018-12-19T04:25:33.679Z,17.63
2018-12-19T04:28:01.802Z,19.80
2018-12-19T04:30:29.954Z,17.83
2018-12-19T04:32:58.107Z,19.77
2018-12-19T04:35:26.295Z,14.78
2018-12-19T04:37:54.406Z,14.45
2018-12-19T04:40:22.515Z,21.17
2018-12-19T04:42:51.880Z,19.13
2018-12-19T04:45:20.019Z,23.00
2018-12-19T04:47:48.058Z,20.97
2018-12-19T04:50:16.217Z,20.32
2018-12-19T04:52:44.288Z,18.50
2018-12-19T04:55:12.426Z,21.50
2018-12-19T04:57:40.464Z,20.23
2018-12-19T05:00:08.613Z,19.90
2018-12-19T05:02:36.785Z,20.80
2018-12-19T05:05:04.912Z,19.20
2018-12-19T05:07:33.048Z,22.60
2018-12-19T05:10:01.509Z,21.27
2018-12-19T05:12:30.097Z,23.57
2018-12-19T05:14:58.188Z,19.50
2018-12-19T05:17:26.314Z,19.50
2018-12-19T05:19:54.575Z,20.37
2018-12-19T05:22:22.677Z,20.33
2018-12-19T05:24:50.750Z,19.53
2018-12-19T05:27:18.788Z,21.67
2018-12-19T05:29:46.830Z,18.40
2018-12-19T05:32:15.002Z,24.03
2018-12-19T05:34:43.136Z,22.90
2018-12-19T05:37:11.203Z,22.77
2018-12-19T05:39:39.293Z,22.63
2018-12-19T05:42:07.364Z,22.83
2018-12-19T05:44:35.447Z,32.73
2018-12-19T05:47:03.489Z,23.03
2018-12-19T05:49:32.022Z,19.77
2018-12-19T05:52:00.097Z,23.13
2018-12-19T05:54:28.156Z,28.70
2018-12-19T05:56:56.387Z,22.17
2018-12-19T05:59:24.434Z,23.63
2018-12-19T06:01:52.438Z,19.47
2018-12-19T06:04:20.478Z,19.53
2018-12-19T06:06:48.570Z,25.53
2018-12-19T06:09:16.657Z,21.00
2018-12-19T06:11:44.695Z,19.80
2018-12-19T06:14:12.718Z,18.47
2018-12-19T06:16:40.731Z,20.10
2018-12-19T06:19:08.860Z,26.33
2018-12-19T06:21:36.983Z,21.17
2018-12-19T06:24:05.054Z,21.37
2018-12-19T06:26:33.133Z,19.10
2018-12-19T06:29:01.303Z,19.50
2018-12-19T06:31:29.397Z,23.93
2018-12-19T06:33:57.751Z,24.27
2018-12-19T06:36:26.138Z,21.77
2018-12-19T06:38:54.250Z,19.87
2018-12-19T06:41:22.373Z,21.77
2018-12-19T06:43:50.417Z,24.60
2018-12-19T06:46:18.486Z,20.10
2018-12-19T06:48:46.555Z,23.77
2018-12-19T06:51:14.627Z,18.10
2018-12-19T06:53:42.667Z,25.80
2018-12-19T06:56:10.807Z,24.43
2018-12-19T06:58:38.875Z,24.07
2018-12-19T07:01:06.855Z,24.10
2018-12-19T07:03:34.981Z,26.73
2018-12-19T07:06:03.004Z,29.37
2018-12-19T07:08:31.153Z,25.00
2018-12-19T07:10:59.186Z,29.30
2018-12-19T07:13:27.407Z,25.33
2018-12-19T07:15:55.533Z,25.03
2018-12-19T07:18:23.667Z,21.10
2018-12-19T07:20:51.754Z,28.53
2018-12-19T07:23:19.799Z,21.93
2018-12-19T07:25:48.033Z,23.80
2018-12-19T07:28:16.136Z,22.83
2018-12-19T07:30:44.149Z,24.23
2018-12-19T07:33:12.299Z,27.37
2018-12-19T07:35:40.414Z,24.90
2018-12-19T07:38:08.476Z,25.80
2018-12-19T07:40:36.595Z,28.03
2018-12-19T07:43:04.641Z,26.37
2018-12-19T07:45:32.766Z,25.90
2018-12-19T07:48:00.959Z,27.27
2018-12-19T07:50:29.079Z,24.33
2018-12-19T07:52:57.214Z,24.53
2018-12-19T07:55:26.614Z,27.40
2018-12-19T07:57:54.833Z,25.10
2018-12-19T08:00:27.478Z,23.83
2018-12-19T08:02:53.030Z,31.43
2018-12-19T08:05:26.220Z,25.20
2018-12-19T08:07:51.054Z,24.53
2018-12-19T08:10:19.174Z,26.20
2018-12-19T08:12:47.247Z,30.93
2018-12-19T08:15:15.299Z,25.20
2018-12-19T08:17:43.379Z,24.87
2018-12-19T08:20:11.510Z,29.60
2018-12-19T08:22:39.644Z,26.80
2018-12-19T08:25:07.773Z,29.60
2018-12-19T08:27:35.818Z,28.20
2018-12-19T08:30:04.402Z,27.27
2018-12-19T08:32:32.463Z,30.83
2018-12-19T08:35:00.628Z,27.85
2018-12-19T08:37:28.784Z,33.33
2018-12-19T08:39:56.983Z,28.17
2018-12-19T08:42:25.027Z,27.83
2018-12-19T08:44:53.098Z,29.80
2018-12-19T08:47:21.202Z,32.47
2018-12-19T08:49:49.234Z,27.80
2018-12-19T08:52:17.502Z,33.53
2018-12-19T08:54:45.554Z,26.33
2018-12-19T08:57:13.759Z,26.77
2018-12-19T08:59:42.030Z,28.73
2018-12-19T09:02:10.090Z,25.13
2018-12-19T09:04:38.180Z,34.40
2018-12-19T09:07:06.311Z,32.93
2018-12-19T09:09:34.310Z,34.00
2018-12-19T09:12:02.385Z,29.60
2018-12-19T09:14:30.450Z,28.30
2018-12-19T09:16:58.634Z,24.57
2018-12-19T09:19:26.886Z,28.47
2018-12-19T09:21:55.595Z,33.47
2018-12-19T09:24:23.618Z,29.70
2018-12-19T09:26:51.677Z,27.47
2018-12-19T09:29:19.730Z,33.03
2018-12-19T09:31:48.589Z,31.73
2018-12-19T09:34:16.640Z,28.67
2018-12-19T09:36:44.689Z,30.57
2018-12-19T09:39:12.715Z,28.43
2018-12-19T09:41:40.806Z,34.43
2018-12-19T09:44:08.890Z,35.17
2018-12-19T09:46:37.001Z,37.73
2018-12-19T09:49:05.060Z,26.17
2018-12-19T09:51:33.586Z,33.97
2018-12-19T09:54:01.710Z,28.90
2018-12-19T09:56:29.935Z,28.23
2018-12-19T09:58:57.986Z,27.83
2018-12-19T10:01:26.015Z,29.00
2018-12-19T10:03:54.063Z,29.93
2018-12-19T10:06:22.132Z,27.83
2018-12-19T10:08:50.368Z,40.37
2018-12-19T10:11:18.801Z,31.77
2018-12-19T10:13:47.055Z,25.70
2018-12-19T10:16:15.107Z,32.30
2018-12-19T10:18:43.222Z,33.20
2018-12-19T10:21:11.326Z,27.40
2018-12-19T10:23:39.402Z,31.30
2018-12-19T10:26:12.455Z,33.67
2018-12-19T10:28:40.593Z,32.20
2018-12-19T10:31:08.618Z,32.63
2018-12-19T10:33:36.757Z,31.87
2018-12-19T10:36:04.871Z,27.87
2018-12-19T10:38:32.919Z,32.90
2018-12-19T10:41:01.270Z,33.07
2018-12-19T10:43:29.365Z,29.83
2018-12-19T10:45:57.470Z,29.90
2018-12-19T10:48:25.639Z,30.47
2018-12-19T10:50:53.839Z,31.90
2018-12-19T10:53:21.904Z,28.53
2018-12-19T10:55:49.958Z,31.20
2018-12-19T10:58:18.020Z,30.43
2018-12-19T11:00:51.483Z,30.30
2018-12-19T11:03:19.486Z,28.40
2018-12-19T11:05:54.179Z,26.73
2018-12-19T11:08:17.611Z,32.87
2018-12-19T11:10:45.739Z,30.43
2018-12-19T11:13:13.835Z,27.67
2018-12-19T11:15:42.723Z,35.03
2018-12-19T11:18:10.890Z,33.23
2018-12-19T11:20:38.926Z,31.17
2018-12-19T11:23:06.986Z,29.17
2018-12-19T11:25:35.047Z,28.10
2018-12-19T11:28:03.251Z,34.67
2018-12-19T11:30:31.350Z,35.33
2018-12-19T11:32:59.512Z,28.60
2018-12-19T11:35:27.640Z,26.87
2018-12-19T11:37:55.768Z,29.23
2018-12-19T11:40:24.409Z,33.70
2018-12-19T11:42:52.508Z,26.60
2018-12-19T11:45:20.501Z,29.97
2018-12-19T11:47:48.619Z,31.70
2018-12-19T11:50:16.639Z,31.73
2018-12-19T11:52:44.774Z,29.60
2018-12-19T11:55:12.831Z,31.20
2018-12-19T11:57:41.112Z,30.90
2018-12-19T12:00:09.886Z,31.87
2018-12-19T12:02:37.938Z,28.83
2018-12-19T12:05:06.205Z,29.80
2018-12-19T12:07:34.368Z,32.47
2018-12-19T12:10:02.498Z,31.83
2018-12-19T12:12:30.599Z,39.00
2018-12-19T12:14:58.711Z,35.20
2018-12-19T12:17:26.783Z,32.20
2018-12-19T12:19:54.874Z,30.07
2018-12-19T12:22:22.983Z,34.80
2018-12-19T12:24:50.994Z,33.70
2018-12-19T12:27:19.921Z,32.77
2018-12-19T12:29:47.990Z,33.57
2018-12-19T12:32:16.082Z,31.10
2018-12-19T12:34:44.099Z,31.37
2018-12-19T12:37:12.183Z,31.67
2018-12-19T12:39:40.269Z,28.43
2018-12-19T12:42:08.297Z,28.43
2018-12-19T12:44:36.639Z,30.70
2018-12-19T12:47:04.801Z,33.17
2018-12-19T12:49:32.900Z,29.40
2018-12-19T12:52:00.982Z,28.53
2018-12-19T12:54:29.144Z,27.70
2018-12-19T12:56:57.202Z,31.93
2018-12-19T12:59:25.245Z,32.23
2018-12-19T13:01:53.324Z,28.83
2018-12-19T13:04:21.439Z,30.53
2018-12-19T13:06:49.562Z,32.17
2018-12-19T13:09:17.661Z,34.93
2018-12-19T13:11:45.769Z,42.53
2018-12-19T13:14:14.001Z,33.97
2018-12-19T13:16:42.462Z,31.10
2018-12-19T13:19:10.556Z,36.03
2018-12-19T13:21:38.739Z,28.47
2018-12-19T13:24:06.879Z,28.33
2018-12-19T13:26:34.929Z,29.90
2018-12-19T13:29:02.945Z,31.57
2018-12-19T13:31:31.038Z,32.97
2018-12-19T13:33:59.191Z,28.63
2018-12-19T13:36:27.218Z,28.40
2018-12-19T13:38:55.284Z,32.13
2018-12-19T13:41:23.934Z,29.33
2018-12-19T13:43:52.045Z,31.50
2018-12-19T13:46:20.102Z,31.37
2018-12-19T13:48:48.330Z,31.50
2018-12-19T13:51:16.398Z,26.93
2018-12-19T13:53:44.565Z,29.20
2018-12-19T13:56:12.653Z,26.87
2018-12-19T13:58:41.071Z,30.93
2018-12-19T14:01:09.126Z,34.17
2018-12-19T14:03:37.230Z,31.53
2018-12-19T14:06:05.406Z,29.70
2018-12-19T14:08:33.505Z,27.37
2018-12-19T14:11:01.562Z,26.50
2018-12-19T14:13:29.822Z,30.10
2018-12-19T14:15:57.937Z,36.17
2018-12-19T14:18:26.010Z,28.40
2018-12-19T14:20:54.080Z,30.20
2018-12-19T14:23:22.225Z,30.87
2018-12-19T14:25:50.270Z,30.10
2018-12-19T14:28:18.260Z,33.50
2018-12-19T14:30:47.049Z,29.73
2018-12-19T14:33:15.327Z,31.73
2018-12-19T14:35:43.458Z,33.17
2018-12-19T14:38:11.599Z,30.07
2018-12-19T14:40:39.909Z,31.53
2018-12-19T14:43:07.970Z,28.87
2018-12-19T14:45:36.103Z,29.00
2018-12-19T14:48:04.227Z,28.60
2018-12-19T14:50:32.455Z,31.40
2018-12-19T14:53:00.465Z,26.27
2018-12-19T14:55:28.554Z,32.50
2018-12-19T14:57:56.684Z,34.27
2018-12-19T15:00:24.959Z,34.13
2018-12-19T15:02:52.973Z,28.93
2018-12-19T15:05:21.078Z,26.93
2018-12-19T15:07:49.163Z,25.33
2018-12-19T15:10:17.914Z,26.47
2018-12-19T15:12:46.025Z,27.53
2018-12-19T15:15:14.258Z,29.67
2018-12-19T15:17:42.302Z,26.83
2018-12-19T15:20:10.374Z,24.77
2018-12-19T15:22:38.448Z,29.90
2018-12-19T15:25:06.970Z,35.33
2018-12-19T15:27:35.204Z,27.07
2018-12-19T15:30:03.563Z,28.53
2018-12-19T15:32:31.650Z,30.13
2018-12-19T15:34:59.762Z,30.33
2018-12-19T15:37:28.836Z,31.73
2018-12-19T15:39:57.065Z,32.57
2018-12-19T15:42:25.112Z,30.03
2018-12-19T15:44:53.299Z,28.37
2018-12-19T15:47:21.409Z,29.17
2018-12-19T15:49:49.550Z,30.23
2018-12-19T15:52:17.601Z,35.50
2018-12-19T15:54:45.774Z,28.70
2018-12-19T15:57:13.787Z,35.03
2018-12-19T15:59:41.887Z,30.60
2018-12-19T16:02:10.418Z,36.77
2018-12-19T16:04:38.554Z,28.53
2018-12-19T16:07:06.723Z,30.13
2018-12-19T16:09:34.875Z,30.87
2018-12-19T16:12:03.004Z,28.00
2018-12-19T16:14:31.229Z,30.00
2018-12-19T16:16:59.485Z,32.50
2018-12-19T16:19:27.615Z,28.50
2018-12-19T16:21:55.628Z,31.17
2018-12-19T16:24:23.703Z,32.90
2018-12-19T16:26:51.762Z,29.43
2018-12-19T16:29:19.878Z,33.27
2018-12-19T16:31:47.957Z,30.60
2018-12-19T16:34:16.237Z,36.67
2018-12-19T16:36:45.267Z,32.93
2018-12-19T16:39:13.405Z,33.20
2018-12-19T16:41:41.527Z,31.00
2018-12-19T16:44:09.748Z,33.10
2018-12-19T16:46:37.787Z,32.67
2018-12-19T16:49:05.992Z,29.87
2018-12-19T16:51:34.023Z,30.33
2018-12-19T16:54:02.150Z,30.60
2018-12-19T16:56:30.316Z,30.80
2018-12-19T16:58:58.382Z,31.90
2018-12-19T17:01:26.659Z,34.83
2018-12-19T17:03:54.786Z,34.87
2018-12-19T17:06:22.920Z,33.37
2018-12-19T17:08:51.057Z,31.80
2018-12-19T17:11:19.143Z,34.53
2018-12-19T17:13:47.146Z,32.10
2018-12-19T17:16:15.878Z,32.77
2018-12-19T17:18:43.954Z,33.67
2018-12-19T17:21:11.994Z,34.60
2018-12-19T17:23:40.122Z,34.30
2018-12-19T17:26:08.223Z,44.80
2018-12-19T17:28:36.283Z,33.43
2018-12-19T17:31:04.397Z,32.20
2018-12-19T17:33:32.559Z,35.23
2018-12-19T17:36:00.675Z,33.17
2018-12-19T17:38:28.867Z,33.43
2018-12-19T17:40:56.931Z,33.60
2018-12-19T17:43:24.994Z,36.60
2018-12-19T17:45:53.130Z,34.93
2018-12-19T17:48:21.238Z,33.10
2018-12-19T17:50:49.311Z,34.17
2018-12-19T17:53:17.418Z,39.00
2018-12-19T17:55:45.467Z,37.40
2018-12-19T17:58:13.506Z,37.90
2018-12-19T18:00:41.722Z,36.17
2018-12-19T18:03:10.616Z,41.00
2018-12-19T18:05:38.689Z,42.13
2018-12-19T18:08:06.822Z,36.17
2018-12-19T18:10:34.930Z,39.37
2018-12-19T18:13:06.049Z,42.23
2018-12-19T18:15:33.075Z,41.80
2018-12-19T18:18:01.189Z,40.63
2018-12-19T18:20:29.397Z,39.80
2018-12-19T18:22:57.382Z,43.30
2018-12-19T18:25:25.500Z,34.97
2018-12-19T18:27:53.646Z,40.90
2018-12-19T18:30:21.769Z,44.30
2018-12-19T18:32:50.191Z,41.03
2018-12-19T18:35:18.258Z,41.80
2018-12-19T18:37:46.279Z,43.03
2018-12-19T18:40:14.411Z,40.80
2018-12-19T18:42:42.464Z,38.43
2018-12-19T18:45:12.010Z,43.20
2018-12-19T18:47:40.287Z,39.83
2018-12-19T18:50:08.412Z,38.33
2018-12-19T18:52:36.438Z,39.90
2018-12-19T18:55:04.855Z,48.77
2018-12-19T18:57:32.949Z,44.57
2018-12-19T19:00:01.098Z,46.93
2018-12-19T19:02:29.231Z,46.23
2018-12-19T19:04:57.420Z,44.40
2018-12-19T19:07:26.151Z,42.13
2018-12-19T19:09:54.301Z,45.97
2018-12-19T19:12:22.504Z,42.10
2018-12-19T19:14:50.699Z,43.57
2018-12-19T19:17:18.826Z,46.13
2018-12-19T19:19:46.907Z,45.00
2018-12-19T19:22:16.018Z,47.10
2018-12-19T19:24:44.067Z,43.17
2018-12-19T19:27:12.258Z,41.90
2018-12-19T19:29:40.326Z,44.23
2018-12-19T19:32:08.376Z,46.97
2018-12-19T19:34:36.499Z,43.40
2018-12-19T19:37:04.687Z,46.20
2018-12-19T19:39:32.628Z,45.37
2018-12-19T19:42:00.730Z,43.73
2018-12-19T19:44:28.883Z,47.83
2018-12-19T19:46:57.006Z,57.00
2018-12-19T19:49:25.054Z,48.73
2018-12-19T19:51:53.284Z,43.93
2018-12-19T19:54:21.328Z,53.77
2018-12-19T19:56:49.413Z,52.17
2018-12-19T19:59:17.480Z,51.87
2018-12-19T20:01:45.596Z,48.13
2018-12-19T20:04:13.642Z,45.60
2018-12-19T20:06:41.750Z,45.30
2018-12-19T20:09:10.491Z,54.03
2018-12-19T20:11:38.657Z,46.57
2018-12-19T20:14:06.722Z,50.63
2018-12-19T20:16:39.095Z,59.93
2018-12-19T20:19:07.289Z,49.40
2018-12-19T20:21:35.309Z,58.13
2018-12-19T20:24:03.381Z,56.30
2018-12-19T20:26:31.558Z,52.13
2018-12-19T20:28:59.611Z,50.63
2018-12-19T20:31:27.736Z,55.10
2018-12-19T20:33:56.698Z,57.23
2018-12-19T20:36:24.770Z,58.90
2018-12-19T20:38:52.931Z,59.57
2018-12-19T20:41:21.013Z,49.07
2018-12-19T20:43:49.142Z,54.87
2018-12-19T20:46:17.385Z,50.50
2018-12-19T20:48:45.555Z,56.50
2018-12-19T20:51:13.645Z,57.13
2018-12-19T20:53:41.755Z,51.90
2018-12-19T20:56:09.886Z,55.93
2018-12-19T20:58:38.345Z,55.50
2018-12-19T21:01:06.513Z,52.80
2018-12-19T21:03:34.623Z,53.10
2018-12-19T21:06:02.770Z,52.87
2018-12-19T21:08:30.828Z,54.37
2018-12-19T21:10:58.911Z,50.13
2018-12-19T21:13:27.098Z,55.80
2018-12-19T21:15:55.163Z,58.60
2018-12-19T21:18:28.674Z,54.83
2018-12-19T21:20:56.834Z,57.70
2018-12-19T21:23:24.890Z,57.60
2018-12-19T21:25:52.974Z,54.00
2018-12-19T21:28:21.039Z,60.67
2018-12-19T21:30:49.115Z,54.63
2018-12-19T21:33:17.143Z,56.50
2018-12-19T21:35:45.326Z,57.17
2018-12-19T21:38:13.439Z,55.87
2018-12-19T21:40:41.625Z,56.30
2018-12-19T21:43:09.804Z,58.30
2018-12-19T21:45:38.063Z,53.53
2018-12-19T21:48:06.182Z,59.63
2018-12-19T21:50:34.305Z,54.67
2018-12-19T21:53:02.400Z,52.63
2018-12-19T21:55:30.558Z,51.83
2018-12-19T21:57:58.608Z,50.37
2018-12-19T22:00:36.980Z,50.30
2018-12-19T22:03:07.362Z,51.53
2018-12-19T22:05:37.340Z,49.53
2018-12-19T22:08:05.436Z,51.00
2018-12-19T22:10:33.602Z,49.73
2018-12-19T22:13:01.809Z,50.20
2018-12-19T22:15:29.952Z,48.13
2018-12-19T22:18:03.515Z,46.40
2018-12-19T22:20:31.654Z,48.63
2018-12-19T22:22:59.841Z,53.57
2018-12-19T22:25:27.970Z,56.23
2018-12-19T22:27:56.098Z,47.80
2018-12-19T22:30:24.157Z,49.43
2018-12-19T22:32:52.314Z,53.37
2018-12-19T22:35:20.409Z,48.60
2018-12-19T22:37:48.538Z,58.40
2018-12-19T22:40:16.666Z,51.00
2018-12-19T22:42:44.815Z,55.90
2018-12-19T22:45:13.470Z,54.23
2018-12-19T22:47:42.140Z,56.13
2018-12-19T22:50:10.354Z,57.00
2018-12-19T22:52:38.506Z,56.57
2018-12-19T22:55:06.742Z,53.27
2018-12-19T22:57:35.587Z,52.93
2018-12-19T23:00:07.057Z,62.10
2018-12-19T23:02:40.547Z,53.57
2018-12-19T23:05:08.707Z,58.70
2018-12-19T23:07:37.012Z,48.60
2018-12-19T23:10:05.402Z,52.73
2018-12-19T23:12:33.640Z,51.97
2018-12-19T23:15:01.841Z,47.63
2018-12-19T23:17:35.737Z,53.23
2018-12-19T23:20:04.481Z,48.07
2018-12-19T23:22:32.657Z,52.67
2018-12-19T23:25:00.691Z,48.87
2018-12-19T23:27:28.836Z,47.53
2018-12-19T23:30:07.240Z,51.63
2018-12-19T23:32:36.846Z,49.03
2018-12-19T23:35:05.168Z,53.97
2018-12-19T23:37:33.271Z,49.17
2018-12-19T23:40:01.345Z,56.00
2018-12-19T23:42:29.723Z,51.27
2018-12-19T23:44:57.875Z,49.40
2018-12-19T23:47:25.962Z,47.07
2018-12-19T23:49:54.180Z,49.50
2018-12-19T23:52:22.420Z,49.67
2018-12-19T23:54:50.800Z,46.10
2018-12-19T23:57:19.015Z,55.90
2018-12-19T23:59:47.021Z,52.80
